createdAt,value
2023-04-25T00:00:57.401Z,0.75
2023-04-25T00:01:57.253Z,0.73
2023-04-25T00:02:57.339Z,0.81
2023-04-25T00:03:57.748Z,0.70
2023-04-25T00:04:57.330Z,0.83
2023-04-25T00:05:57.274Z,1.11
2023-04-25T00:06:57.201Z,1.01
2023-04-25T00:07:57.226Z,0.82
2023-04-25T00:08:57.227Z,0.66
2023-04-25T00:09:57.226Z,0.80
2023-04-25T00:10:57.177Z,0.86
2023-04-25T00:11:57.201Z,0.93
2023-04-25T00:12:57.177Z,0.78
2023-04-25T00:13:57.195Z,0.76
2023-04-25T00:14:57.177Z,0.50
2023-04-25T00:15:57.198Z,0.74
2023-04-25T00:16:57.171Z,0.54
2023-04-25T00:17:57.179Z,0.91
2023-04-25T00:18:57.143Z,0.60
2023-04-25T00:19:57.143Z,1.27
2023-04-25T00:20:57.128Z,0.75
2023-04-25T00:21:57.121Z,0.79
2023-04-25T00:22:57.091Z,0.79
2023-04-25T00:23:57.114Z,0.90
2023-04-25T00:24:57.106Z,0.77
2023-04-25T00:25:57.090Z,0.88
2023-04-25T00:26:57.079Z,0.94
2023-04-25T00:27:57.096Z,0.78
2023-04-25T00:28:57.070Z,0.89
2023-04-25T00:29:57.051Z,0.54
2023-04-25T00:30:57.074Z,0.62
2023-04-25T00:31:57.246Z,0.71
2023-04-25T00:32:57.231Z,0.49
2023-04-25T00:33:57.225Z,0.74
2023-04-25T00:34:57.277Z,0.81
2023-04-25T00:35:57.350Z,0.83
2023-04-25T00:36:57.388Z,0.72
2023-04-25T00:37:57.470Z,0.84
2023-04-25T00:38:57.502Z,0.77
2023-04-25T00:39:57.581Z,0.85
2023-04-25T00:40:57.606Z,0.61
2023-04-25T00:41:57.673Z,0.70
2023-04-25T00:42:57.713Z,0.94
2023-04-25T00:43:57.791Z,0.84
2023-04-25T00:44:57.811Z,0.98
2023-04-25T00:45:57.867Z,0.74
2023-04-25T00:46:57.971Z,0.79
2023-04-25T00:47:57.978Z,0.69
2023-04-25T00:48:58.028Z,0.90
2023-04-25T00:49:58.059Z,1.00
2023-04-25T00:50:58.141Z,0.72
2023-04-25T00:51:58.165Z,0.90
2023-04-25T00:52:58.236Z,0.78
2023-04-25T00:53:58.295Z,0.92
2023-04-25T00:54:58.329Z,0.82
2023-04-25T00:55:58.361Z,0.79
2023-04-25T00:56:58.418Z,0.61
2023-04-25T00:57:58.459Z,0.82
2023-04-25T00:58:58.531Z,0.96
2023-04-25T00:59:58.606Z,0.77
2023-04-25T01:00:58.665Z,0.83
2023-04-25T01:01:58.687Z,0.82
2023-04-25T01:02:58.830Z,1.04
2023-04-25T01:03:58.875Z,0.62
2023-04-25T01:04:58.856Z,0.85
2023-04-25T01:05:58.878Z,0.96
2023-04-25T01:06:58.951Z,0.65
2023-04-25T01:07:58.973Z,0.66
2023-04-25T01:08:59.043Z,1.12
2023-04-25T01:09:59.118Z,0.71
2023-04-25T01:10:59.118Z,0.60
2023-04-25T01:11:59.188Z,0.96
2023-04-25T01:12:59.234Z,0.91
2023-04-25T01:13:59.288Z,0.62
2023-04-25T01:14:59.371Z,0.91
2023-04-25T01:15:59.358Z,0.71
2023-04-25T01:16:59.545Z,1.39
2023-04-25T01:17:59.545Z,0.82
2023-04-25T01:18:59.557Z,0.83
2023-04-25T01:19:59.589Z,0.97
2023-04-25T01:20:59.627Z,0.62
2023-04-25T01:21:59.699Z,0.76
2023-04-25T01:22:59.743Z,0.88
2023-04-25T01:23:59.795Z,1.14
2023-04-25T01:24:59.876Z,0.71
2023-04-25T01:25:59.923Z,0.82
2023-04-25T01:26:59.959Z,0.68
2023-04-25T01:28:00.031Z,0.56
2023-04-25T01:29:00.109Z,0.77
2023-04-25T01:30:00.132Z,0.71
2023-04-25T01:31:00.155Z,0.69
2023-04-25T01:32:00.256Z,0.77
2023-04-25T01:33:00.318Z,0.68
2023-04-25T01:34:00.338Z,0.74
2023-04-25T01:35:00.413Z,0.83
2023-04-25T01:36:00.436Z,0.76
2023-04-25T01:37:00.447Z,0.97
2023-04-25T01:38:00.519Z,0.96
2023-04-25T01:39:00.567Z,0.94
2023-04-25T01:40:00.645Z,0.90
2023-04-25T01:41:00.676Z,0.87
2023-04-25T01:42:00.737Z,1.06
2023-04-25T01:43:00.779Z,1.12
2023-04-25T01:44:00.833Z,0.61
2023-04-25T01:45:00.876Z,0.64
2023-04-25T01:46:00.954Z,0.78
2023-04-25T01:47:01.004Z,0.86
2023-04-25T01:48:01.086Z,0.86
2023-04-25T01:49:01.063Z,0.82
2023-04-25T01:50:01.149Z,0.85
2023-04-25T01:51:01.186Z,0.83
2023-04-25T01:52:01.214Z,0.78
2023-04-25T01:53:01.300Z,0.81
2023-04-25T01:54:01.311Z,0.86
2023-04-25T01:55:01.376Z,0.92
2023-04-25T01:56:01.452Z,0.88
2023-04-25T01:57:01.491Z,0.83
2023-04-25T01:58:01.549Z,0.79
2023-04-25T01:59:01.611Z,0.87
2023-04-25T02:00:01.669Z,0.72
2023-04-25T02:01:01.787Z,0.72
2023-04-25T02:02:01.765Z,0.90
2023-04-25T02:03:01.918Z,1.01
2023-04-25T02:04:02.079Z,0.98
2023-04-25T02:05:01.906Z,0.63
2023-04-25T02:06:01.993Z,0.99
2023-04-25T02:07:02.024Z,0.67
2023-04-25T02:08:02.060Z,0.74
2023-04-25T02:09:02.111Z,0.81
2023-04-25T02:10:02.201Z,0.70
2023-04-25T02:11:02.210Z,0.65
2023-04-25T02:12:02.314Z,0.68
2023-04-25T02:13:02.346Z,0.73
2023-04-25T02:14:02.393Z,0.68
2023-04-25T02:15:02.419Z,0.89
2023-04-25T02:16:02.604Z,0.88
2023-04-25T02:17:02.636Z,0.98
2023-04-25T02:18:02.565Z,0.82
2023-04-25T02:19:02.636Z,0.90
2023-04-25T02:20:02.703Z,0.75
2023-04-25T02:21:02.722Z,1.05
2023-04-25T02:22:02.817Z,0.90
2023-04-25T02:23:02.847Z,1.16
2023-04-25T02:24:02.884Z,0.76
2023-04-25T02:25:02.999Z,0.80
2023-04-25T02:26:03.016Z,0.68
2023-04-25T02:27:03.072Z,0.73
2023-04-25T02:28:03.140Z,0.78
2023-04-25T02:29:03.161Z,0.97
2023-04-25T02:30:03.202Z,0.95
2023-04-25T02:31:03.300Z,0.52
2023-04-25T02:32:03.314Z,0.94
2023-04-25T02:33:03.460Z,0.55
2023-04-25T02:34:03.427Z,1.15
2023-04-25T02:35:03.500Z,0.72
2023-04-25T02:36:03.530Z,0.85
2023-04-25T02:37:03.600Z,0.85
2023-04-25T02:38:03.639Z,0.73
2023-04-25T02:39:03.707Z,0.84
2023-04-25T02:40:03.727Z,0.72
2023-04-25T02:41:03.788Z,0.79
2023-04-25T02:42:03.823Z,0.94
2023-04-25T02:43:03.874Z,0.93
2023-04-25T02:44:03.932Z,0.87
2023-04-25T02:45:03.993Z,1.12
2023-04-25T02:46:04.052Z,0.73
2023-04-25T02:47:04.122Z,0.88
2023-04-25T02:48:04.228Z,1.16
2023-04-25T02:49:04.217Z,0.91
2023-04-25T02:50:04.273Z,0.72
2023-04-25T02:51:04.334Z,0.71
2023-04-25T02:52:04.370Z,0.56
2023-04-25T02:53:04.427Z,0.69
2023-04-25T02:54:04.461Z,0.72
2023-04-25T02:55:04.533Z,0.84
2023-04-25T02:56:04.628Z,0.66
2023-04-25T02:57:04.646Z,0.91
2023-04-25T02:58:04.712Z,0.95
2023-04-25T02:59:04.739Z,0.63
2023-04-25T03:00:04.789Z,0.67
2023-04-25T03:01:04.874Z,0.89
2023-04-25T03:02:04.907Z,1.12
2023-04-25T03:03:29.974Z,0.86
2023-04-25T03:04:29.898Z,0.83
2023-04-25T03:05:29.884Z,0.85
2023-04-25T03:06:29.897Z,0.75
2023-04-25T03:07:29.919Z,0.54
2023-04-25T03:08:29.877Z,0.97
2023-04-25T03:09:29.871Z,0.72
2023-04-25T03:10:29.865Z,0.90
2023-04-25T03:11:29.875Z,0.89
2023-04-25T03:12:29.849Z,0.67
2023-04-25T03:13:29.846Z,1.06
2023-04-25T03:14:29.836Z,0.70
2023-04-25T03:15:29.809Z,0.99
2023-04-25T03:16:29.883Z,0.69
2023-04-25T03:17:29.904Z,0.58
2023-04-25T03:18:29.804Z,0.79
2023-04-25T03:19:29.820Z,0.59
2023-04-25T03:20:29.790Z,0.80
2023-04-25T03:21:29.773Z,0.76
2023-04-25T03:22:29.801Z,0.70
2023-04-25T03:23:29.785Z,1.02
2023-04-25T03:24:29.796Z,0.89
2023-04-25T03:25:29.776Z,0.87
2023-04-25T03:26:29.755Z,0.60
2023-04-25T03:27:29.775Z,0.75
2023-04-25T03:28:29.747Z,0.81
2023-04-25T03:29:29.735Z,0.88
2023-04-25T03:30:29.750Z,1.04
2023-04-25T03:31:29.774Z,0.62
2023-04-25T03:32:29.823Z,0.59
2023-04-25T03:33:29.717Z,0.68
2023-04-25T03:34:29.701Z,0.90
2023-04-25T03:35:29.715Z,0.83
2023-04-25T03:36:29.726Z,1.12
2023-04-25T03:37:29.703Z,0.66
2023-04-25T03:38:29.707Z,0.98
2023-04-25T03:39:29.724Z,0.76
2023-04-25T03:40:29.647Z,0.72
2023-04-25T03:41:29.646Z,1.03
2023-04-25T03:42:29.663Z,1.07
2023-04-25T03:43:29.678Z,0.78
2023-04-25T03:44:29.664Z,1.02
2023-04-25T03:45:29.664Z,0.99
2023-04-25T03:46:29.661Z,0.95
2023-04-25T03:47:29.831Z,1.01
2023-04-25T03:48:29.754Z,0.87
2023-04-25T03:49:29.806Z,0.69
2023-04-25T03:50:29.847Z,1.12
2023-04-25T03:51:29.907Z,0.79
2023-04-25T03:52:29.973Z,0.87
2023-04-25T03:53:30.007Z,0.96
2023-04-25T03:54:30.057Z,0.76
2023-04-25T03:55:30.107Z,0.91
2023-04-25T03:56:30.168Z,0.71
2023-04-25T03:57:30.217Z,0.90
2023-04-25T03:58:30.266Z,0.94
2023-04-25T03:59:30.343Z,0.75
2023-04-25T04:00:30.359Z,0.87
2023-04-25T04:01:30.422Z,0.68
2023-04-25T04:02:30.627Z,0.73
2023-04-25T04:03:30.732Z,0.86
2023-04-25T04:04:30.829Z,1.09
2023-04-25T04:05:30.670Z,0.80
2023-04-25T04:06:30.672Z,0.80
2023-04-25T04:07:30.717Z,1.01
2023-04-25T04:08:30.795Z,0.91
2023-04-25T04:09:30.839Z,1.10
2023-04-25T04:10:30.913Z,0.87
2023-04-25T04:11:30.938Z,0.46
2023-04-25T04:12:31.012Z,0.91
2023-04-25T04:13:31.044Z,0.98
2023-04-25T04:14:31.105Z,0.73
2023-04-25T04:15:31.190Z,0.71
2023-04-25T04:16:33.965Z,0.74
2023-04-25T04:17:31.285Z,0.85
2023-04-25T04:18:31.206Z,0.80
2023-04-25T04:19:31.171Z,0.63
2023-04-25T04:20:31.180Z,1.08
2023-04-25T04:21:31.163Z,0.75
2023-04-25T04:22:31.162Z,0.88
2023-04-25T04:23:31.136Z,0.73
2023-04-25T04:24:31.168Z,0.76
2023-04-25T04:25:31.150Z,0.78
2023-04-25T04:26:31.128Z,0.91
2023-04-25T04:27:31.110Z,0.85
2023-04-25T04:28:31.147Z,0.83
2023-04-25T04:29:31.106Z,0.88
2023-04-25T04:30:31.142Z,0.88
2023-04-25T04:31:31.225Z,0.98
2023-04-25T04:32:31.108Z,0.84
2023-04-25T04:33:31.096Z,1.06
2023-04-25T04:34:31.085Z,0.78
2023-04-25T04:35:31.071Z,1.01
2023-04-25T04:36:31.071Z,0.87
2023-04-25T04:37:31.066Z,0.86
2023-04-25T04:38:31.025Z,1.12
2023-04-25T04:39:31.089Z,0.90
2023-04-25T04:40:31.035Z,0.77
2023-04-25T04:41:31.007Z,0.79
2023-04-25T04:42:31.019Z,0.68
2023-04-25T04:43:31.027Z,1.04
2023-04-25T04:44:31.009Z,1.35
2023-04-25T04:45:31.016Z,0.62
2023-04-25T04:46:31.056Z,0.87
2023-04-25T04:47:31.013Z,0.88
2023-04-25T04:48:31.005Z,0.73
2023-04-25T04:49:30.989Z,0.87
2023-04-25T04:50:31.032Z,0.77
2023-04-25T04:51:30.935Z,1.02
2023-04-25T04:52:31.008Z,0.78
2023-04-25T04:53:31.060Z,0.94
2023-04-25T04:54:31.063Z,0.83
2023-04-25T04:55:31.163Z,0.69
2023-04-25T04:56:31.187Z,0.71
2023-04-25T04:57:31.264Z,0.76
2023-04-25T04:58:31.305Z,1.06
2023-04-25T04:59:31.337Z,0.90
2023-04-25T05:00:31.419Z,0.90
2023-04-25T05:01:31.389Z,0.69
2023-04-25T05:02:31.612Z,1.08
2023-04-25T05:03:31.639Z,1.35
2023-04-25T05:04:31.589Z,0.68
2023-04-25T05:05:31.557Z,1.07
2023-04-25T05:06:31.589Z,0.87
2023-04-25T05:07:31.655Z,0.90
2023-04-25T05:08:31.686Z,1.04
2023-04-25T05:09:31.750Z,0.94
2023-04-25T05:10:31.789Z,1.03
2023-04-25T05:11:32.638Z,0.81
2023-04-25T05:12:31.902Z,0.83
2023-04-25T05:13:31.944Z,0.65
2023-04-25T05:14:32.014Z,0.74
2023-04-25T05:15:32.101Z,1.14
2023-04-25T05:16:32.139Z,0.94
2023-04-25T05:17:32.177Z,0.65
2023-04-25T05:18:32.203Z,0.83
2023-04-25T05:19:32.251Z,0.87
2023-04-25T05:20:32.344Z,0.84
2023-04-25T05:21:32.446Z,0.71
2023-04-25T05:22:32.427Z,0.66
2023-04-25T05:23:33.385Z,0.82
2023-04-25T05:24:32.568Z,0.75
2023-04-25T05:25:32.594Z,0.67
2023-04-25T05:26:32.619Z,1.13
2023-04-25T05:27:32.720Z,1.13
2023-04-25T05:28:32.728Z,0.97
2023-04-25T05:29:32.786Z,0.83
2023-04-25T05:30:32.829Z,0.69
2023-04-25T05:31:32.936Z,0.82
2023-04-25T05:32:32.964Z,1.10
2023-04-25T05:33:33.006Z,0.92
2023-04-25T05:34:33.047Z,0.79
2023-04-25T05:35:33.166Z,0.97
2023-04-25T05:36:33.181Z,0.87
2023-04-25T05:37:33.197Z,0.87
2023-04-25T05:38:34.786Z,1.01
2023-04-25T05:39:33.326Z,0.94
2023-04-25T05:40:33.651Z,0.95
2023-04-25T05:41:33.408Z,1.05
2023-04-25T05:42:33.470Z,1.03
2023-04-25T05:43:33.514Z,1.47
2023-04-25T05:44:33.552Z,1.49
2023-04-25T05:45:33.667Z,2.21
2023-04-25T05:46:33.745Z,1.83
2023-04-25T05:47:33.776Z,2.29
2023-04-25T05:48:33.710Z,2.60
2023-04-25T05:49:33.742Z,1.83
2023-04-25T05:50:33.754Z,1.92
2023-04-25T05:51:33.765Z,2.52
2023-04-25T05:52:33.794Z,1.46
2023-04-25T05:53:33.841Z,1.52
2023-04-25T05:54:33.794Z,3.20
2023-04-25T05:55:33.815Z,2.33
2023-04-25T05:56:33.812Z,2.33
2023-04-25T05:57:33.821Z,2.10
2023-04-25T05:58:33.815Z,1.84
2023-04-25T05:59:33.849Z,2.42
2023-04-25T06:00:33.903Z,1.83
2023-04-25T06:01:34.006Z,2.32
2023-04-25T06:02:34.128Z,2.26
2023-04-25T06:03:34.303Z,2.40
2023-04-25T06:04:34.619Z,2.34
2023-04-25T06:05:34.746Z,2.55
2023-04-25T06:06:34.249Z,2.00
2023-04-25T06:07:34.309Z,3.37
2023-04-25T06:08:34.353Z,2.64
2023-04-25T06:09:34.409Z,2.76
2023-04-25T06:10:34.501Z,1.98
2023-04-25T06:11:34.517Z,2.90
2023-04-25T06:12:34.578Z,2.52
2023-04-25T06:13:34.595Z,2.67
2023-04-25T06:14:34.674Z,2.61
2023-04-25T06:15:34.795Z,2.95
2023-04-25T06:16:34.864Z,3.11
2023-04-25T06:17:34.874Z,2.63
2023-04-25T06:18:34.824Z,2.60
2023-04-25T06:19:34.884Z,2.46
2023-04-25T06:20:34.956Z,2.51
2023-04-25T06:21:35.042Z,3.15
2023-04-25T06:22:35.063Z,2.06
2023-04-25T06:23:35.045Z,1.92
2023-04-25T06:24:35.114Z,2.66
2023-04-25T06:25:35.128Z,2.61
2023-04-25T06:26:35.172Z,3.48
2023-04-25T06:27:35.239Z,2.44
2023-04-25T06:28:35.250Z,1.94
2023-04-25T06:29:35.287Z,2.80
2023-04-25T06:30:35.341Z,2.43
2023-04-25T06:31:35.374Z,2.30
2023-04-25T06:32:35.414Z,3.34
2023-04-25T06:33:35.400Z,3.29
2023-04-25T06:34:35.435Z,2.82
2023-04-25T06:35:35.444Z,2.33
2023-04-25T06:36:35.473Z,2.56
2023-04-25T06:37:35.518Z,2.82
2023-04-25T06:38:35.554Z,2.79
2023-04-25T06:39:35.574Z,2.48
2023-04-25T06:40:35.597Z,2.60
2023-04-25T06:41:35.611Z,2.91
2023-04-25T06:42:35.611Z,2.06
2023-04-25T06:43:35.659Z,2.50
2023-04-25T06:44:35.705Z,2.80
2023-04-25T06:45:35.711Z,2.68
2023-04-25T06:46:35.767Z,2.81
2023-04-25T06:47:35.783Z,2.95
2023-04-25T06:48:35.805Z,4.28
2023-04-25T06:49:35.800Z,4.67
2023-04-25T06:50:36.226Z,3.93
2023-04-25T06:51:35.852Z,4.71
2023-04-25T06:52:35.903Z,4.20
2023-04-25T06:53:35.941Z,4.68
2023-04-25T06:54:35.928Z,4.27
2023-04-25T06:55:36.034Z,3.69
2023-04-25T06:56:36.080Z,3.72
2023-04-25T06:57:36.094Z,3.42
2023-04-25T06:58:36.185Z,2.55
2023-04-25T06:59:36.212Z,3.17
2023-04-25T07:00:36.304Z,2.56
2023-04-25T07:01:36.304Z,2.94
2023-04-25T07:02:36.473Z,2.93
2023-04-25T07:03:36.630Z,3.00
2023-04-25T07:04:36.527Z,3.67
2023-04-25T07:05:36.555Z,3.77
2023-04-25T07:06:36.523Z,2.95
2023-04-25T07:07:36.582Z,3.93
2023-04-25T07:08:36.573Z,3.47
2023-04-25T07:09:36.628Z,3.41
2023-04-25T07:10:36.654Z,3.25
2023-04-25T07:11:36.643Z,2.76
2023-04-25T07:12:36.693Z,4.03
2023-04-25T07:13:36.705Z,3.32
2023-04-25T07:14:36.776Z,4.25
2023-04-25T07:15:36.793Z,2.89
2023-04-25T07:16:36.830Z,4.32
2023-04-25T07:17:36.840Z,2.72
2023-04-25T07:18:36.884Z,3.74
2023-04-25T07:19:36.865Z,3.45
2023-04-25T07:20:36.880Z,2.76
2023-04-25T07:21:36.919Z,3.51
2023-04-25T07:22:36.938Z,4.16
2023-04-25T07:23:36.929Z,3.70
2023-04-25T07:24:36.941Z,3.08
2023-04-25T07:25:36.959Z,3.74
2023-04-25T07:26:36.964Z,3.15
2023-04-25T07:27:37.004Z,3.04
2023-04-25T07:28:37.058Z,4.00
2023-04-25T07:29:37.021Z,3.14
2023-04-25T07:30:37.030Z,2.73
2023-04-25T07:31:37.088Z,2.53
2023-04-25T07:32:37.076Z,2.80
2023-04-25T07:33:37.048Z,3.23
2023-04-25T07:34:37.088Z,3.13
2023-04-25T07:35:37.074Z,3.83
2023-04-25T07:36:37.122Z,2.81
2023-04-25T07:37:37.082Z,3.51
2023-04-25T07:38:37.106Z,3.34
2023-04-25T07:39:37.095Z,3.70
2023-04-25T07:40:37.229Z,2.95
2023-04-25T07:41:37.158Z,4.03
2023-04-25T07:42:37.204Z,3.57
2023-04-25T07:43:37.193Z,4.24
2023-04-25T07:44:37.173Z,4.37
2023-04-25T07:45:37.252Z,4.99
2023-04-25T07:46:37.187Z,4.65
2023-04-25T07:47:37.268Z,5.70
2023-04-25T07:48:37.195Z,4.32
2023-04-25T07:49:37.198Z,5.49
2023-04-25T07:50:37.242Z,5.98
2023-04-25T07:51:37.208Z,6.11
2023-04-25T07:52:37.243Z,5.60
2023-04-25T07:53:37.752Z,5.26
2023-04-25T07:54:37.245Z,8.27
2023-04-25T07:55:37.255Z,6.15
2023-04-25T07:56:49.218Z,5.72
2023-04-25T07:57:38.281Z,5.26
2023-04-25T07:58:37.277Z,4.46
2023-04-25T07:59:37.224Z,5.25
2023-04-25T08:00:37.243Z,5.60
2023-04-25T08:01:37.245Z,5.61
2023-04-25T08:02:37.335Z,5.53
2023-04-25T08:03:37.518Z,6.91
2023-04-25T08:04:37.369Z,4.99
2023-04-25T08:05:37.278Z,5.01
2023-04-25T08:06:37.347Z,5.49
2023-04-25T08:07:37.188Z,5.37
2023-04-25T08:08:37.154Z,5.60
2023-04-25T08:09:37.184Z,5.01
2023-04-25T08:10:37.162Z,5.58
2023-04-25T08:11:37.184Z,5.26
2023-04-25T08:12:37.157Z,6.35
2023-04-25T08:13:37.148Z,6.74
2023-04-25T08:14:37.218Z,4.25
2023-04-25T08:15:37.179Z,4.41
2023-04-25T08:16:37.132Z,5.15
2023-04-25T08:17:37.156Z,5.25
2023-04-25T08:18:37.109Z,5.31
2023-04-25T08:19:37.133Z,4.45
2023-04-25T08:20:37.079Z,5.08
2023-04-25T08:21:37.099Z,4.81
2023-04-25T08:22:37.076Z,3.61
2023-04-25T08:23:37.081Z,5.22
2023-04-25T08:24:39.370Z,4.57
2023-04-25T08:25:37.227Z,4.61
2023-04-25T08:26:37.298Z,5.25
2023-04-25T08:27:37.278Z,4.86
2023-04-25T08:28:37.322Z,5.71
2023-04-25T08:29:37.322Z,4.87
2023-04-25T08:30:37.371Z,5.25
2023-04-25T08:31:37.477Z,5.03
2023-04-25T08:32:37.502Z,4.21
2023-04-25T08:33:37.487Z,3.32
2023-04-25T08:34:37.556Z,3.00
2023-04-25T08:35:37.541Z,2.98
2023-04-25T08:36:39.856Z,4.23
2023-04-25T08:37:37.562Z,3.19
2023-04-25T08:38:37.534Z,3.82
2023-04-25T08:39:37.546Z,4.61
2023-04-25T08:40:37.609Z,4.54
2023-04-25T08:41:37.723Z,4.76
2023-04-25T08:42:37.590Z,5.21
2023-04-25T08:43:37.522Z,4.42
2023-04-25T08:44:37.518Z,3.74
2023-04-25T08:45:37.504Z,4.64
2023-04-25T08:46:37.757Z,4.91
2023-04-25T08:47:37.527Z,6.97
2023-04-25T08:48:37.467Z,6.19
2023-04-25T08:49:37.543Z,4.70
2023-04-25T08:50:37.517Z,4.11
2023-04-25T08:51:37.741Z,4.86
2023-04-25T08:52:37.457Z,6.55
2023-04-25T08:53:38.493Z,6.06
2023-04-25T08:54:39.647Z,5.73
2023-04-25T08:55:37.453Z,3.57
2023-04-25T08:56:37.444Z,4.45
2023-04-25T08:57:37.413Z,3.97
2023-04-25T08:58:37.440Z,3.91
2023-04-25T08:59:39.153Z,2.91
2023-04-25T09:00:37.485Z,2.72
2023-04-25T09:01:37.434Z,1.98
2023-04-25T09:02:37.474Z,2.15
2023-04-25T09:03:37.545Z,2.38
2023-04-25T09:04:37.452Z,2.20
2023-04-25T09:05:37.360Z,1.94
2023-04-25T09:06:37.342Z,1.70
2023-04-25T09:07:37.367Z,1.82
2023-04-25T09:08:37.361Z,1.72
2023-04-25T09:09:37.342Z,1.89
2023-04-25T09:10:37.354Z,2.24
2023-04-25T09:11:37.323Z,2.19
2023-04-25T09:12:37.323Z,1.38
2023-04-25T09:13:37.312Z,1.74
2023-04-25T09:14:37.304Z,1.61
2023-04-25T09:15:37.374Z,2.00
2023-04-25T09:16:39.536Z,2.06
2023-04-25T09:17:37.368Z,1.99
2023-04-25T09:18:37.404Z,2.27
2023-04-25T09:19:41.065Z,1.51
2023-04-25T09:20:40.402Z,1.69
2023-04-25T09:21:38.395Z,1.88
2023-04-25T09:22:37.375Z,1.80
2023-04-25T09:23:37.393Z,2.40
2023-04-25T09:24:37.342Z,1.88
2023-04-25T09:25:37.363Z,1.68
2023-04-25T09:26:37.364Z,2.02
2023-04-25T09:27:37.331Z,2.64
2023-04-25T09:28:37.340Z,2.23
2023-04-25T09:29:37.348Z,1.97
2023-04-25T09:30:37.346Z,2.41
2023-04-25T09:31:37.765Z,2.21
2023-04-25T09:32:37.344Z,2.26
2023-04-25T09:33:37.322Z,1.67
2023-04-25T09:34:37.322Z,1.84
2023-04-25T09:35:37.315Z,2.06
2023-04-25T09:36:37.880Z,2.00
2023-04-25T09:37:37.274Z,2.46
2023-04-25T09:38:37.264Z,1.89
2023-04-25T09:39:37.272Z,1.76
2023-04-25T09:40:37.253Z,2.93
2023-04-25T09:41:37.783Z,6.08
2023-04-25T09:42:37.249Z,3.27
2023-04-25T09:43:37.241Z,3.93
2023-04-25T09:44:37.221Z,3.24
2023-04-25T09:45:37.300Z,3.76
2023-04-25T09:46:37.385Z,2.81
2023-04-25T09:47:37.418Z,2.85
2023-04-25T09:48:38.343Z,2.01
2023-04-25T09:49:37.317Z,2.83
2023-04-25T09:50:37.330Z,2.41
2023-04-25T09:51:37.733Z,2.78
2023-04-25T09:52:37.384Z,3.19
2023-04-25T09:53:37.317Z,3.02
2023-04-25T09:54:37.335Z,2.72
2023-04-25T09:55:37.340Z,2.34
2023-04-25T09:56:37.309Z,2.58
2023-04-25T09:57:37.287Z,2.94
2023-04-25T09:58:37.316Z,2.59
2023-04-25T09:59:37.339Z,2.58
2023-04-25T10:00:37.409Z,2.54
2023-04-25T10:01:37.439Z,2.36
2023-04-25T10:02:37.447Z,2.49
2023-04-25T10:03:37.778Z,2.90
2023-04-25T10:04:37.508Z,2.54
2023-04-25T10:05:37.447Z,2.75
2023-04-25T10:06:37.753Z,2.79
2023-04-25T10:07:37.434Z,3.06
2023-04-25T10:08:37.501Z,2.80
2023-04-25T10:09:37.478Z,4.45
2023-04-25T10:10:37.515Z,3.18
2023-04-25T10:11:37.549Z,2.43
2023-04-25T10:12:37.577Z,2.85
2023-04-25T10:13:37.576Z,2.59
2023-04-25T10:14:37.624Z,2.70
2023-04-25T10:15:40.053Z,2.23
2023-04-25T10:16:37.651Z,2.82
2023-04-25T10:17:37.706Z,2.38
2023-04-25T10:18:37.655Z,2.00
2023-04-25T10:19:37.592Z,2.60
2023-04-25T10:20:37.614Z,2.18
2023-04-25T10:21:37.616Z,2.50
2023-04-25T10:22:37.589Z,2.03
2023-04-25T10:23:37.593Z,2.29
2023-04-25T10:24:37.655Z,1.79
2023-04-25T10:25:37.599Z,2.17
2023-04-25T10:26:37.569Z,2.41
2023-04-25T10:27:37.575Z,2.03
2023-04-25T10:28:37.563Z,2.18
2023-04-25T10:29:37.559Z,2.02
2023-04-25T10:30:37.591Z,2.40
2023-04-25T10:31:37.646Z,2.19
2023-04-25T10:32:37.550Z,2.50
2023-04-25T10:33:37.524Z,2.31
2023-04-25T10:34:37.523Z,1.94
2023-04-25T10:35:37.516Z,1.76
2023-04-25T10:36:37.541Z,1.79
2023-04-25T10:37:40.108Z,5.00
2023-04-25T10:38:37.508Z,2.78
2023-04-25T10:39:37.497Z,2.18
2023-04-25T10:40:37.500Z,2.74
2023-04-25T10:41:37.491Z,2.38
2023-04-25T10:42:37.771Z,2.19
2023-04-25T10:43:37.450Z,2.35
2023-04-25T10:44:37.462Z,2.63
2023-04-25T10:45:37.435Z,3.05
2023-04-25T10:46:37.539Z,3.05
2023-04-25T10:47:37.470Z,2.54
2023-04-25T10:48:37.402Z,3.16
2023-04-25T10:49:37.386Z,2.36
2023-04-25T10:50:37.428Z,5.97
2023-04-25T10:51:54.421Z,3.86
2023-04-25T10:52:38.397Z,4.34
2023-04-25T10:53:37.404Z,3.79
2023-04-25T10:54:37.418Z,2.79
2023-04-25T10:55:37.409Z,3.35
2023-04-25T10:56:37.366Z,3.54
2023-04-25T10:57:37.387Z,4.00
2023-04-25T10:58:37.384Z,4.00
2023-04-25T10:59:37.384Z,4.20
2023-04-25T11:00:53.242Z,3.38
2023-04-25T11:01:38.401Z,3.44
2023-04-25T11:02:37.460Z,3.20
2023-04-25T11:03:37.471Z,2.58
2023-04-25T11:04:37.807Z,2.66
2023-04-25T11:06:38.336Z,2.20
2023-04-25T11:07:37.774Z,2.72
2023-04-25T11:08:37.293Z,2.19
2023-04-25T11:09:37.312Z,1.85
2023-04-25T11:10:37.338Z,2.13
2023-04-25T11:11:37.300Z,1.90
2023-04-25T11:12:37.307Z,2.18
2023-04-25T11:13:37.284Z,2.14
2023-04-25T11:14:37.301Z,2.00
2023-04-25T11:15:37.284Z,1.52
2023-04-25T11:16:37.381Z,1.99
2023-04-25T11:17:37.388Z,2.09
2023-04-25T11:18:37.407Z,1.77
2023-04-25T11:19:37.463Z,1.49
2023-04-25T11:20:37.615Z,1.79
2023-04-25T11:21:37.556Z,1.88
2023-04-25T11:22:37.584Z,1.48
2023-04-25T11:23:37.630Z,1.41
2023-04-25T11:24:37.645Z,1.90
2023-04-25T11:25:38.759Z,2.46
2023-04-25T11:26:37.666Z,1.42
2023-04-25T11:27:37.788Z,1.49
2023-04-25T11:28:37.638Z,2.13
2023-04-25T11:29:37.699Z,1.96
2023-04-25T11:30:37.762Z,2.73
2023-04-25T11:31:37.835Z,2.02
2023-04-25T11:32:38.474Z,1.85
2023-04-25T11:33:37.922Z,2.28
2023-04-25T11:34:38.005Z,1.94
2023-04-25T11:35:38.046Z,2.13
2023-04-25T11:36:38.103Z,2.32
2023-04-25T11:37:38.292Z,1.96
2023-04-25T11:38:38.207Z,1.56
2023-04-25T11:39:38.281Z,2.28
2023-04-25T11:40:38.375Z,1.61
2023-04-25T11:41:38.611Z,1.67
2023-04-25T11:42:38.469Z,1.57
2023-04-25T11:43:38.504Z,1.69
2023-04-25T11:44:38.623Z,1.72
2023-04-25T11:45:38.666Z,1.65
2023-04-25T11:46:38.784Z,1.22
2023-04-25T11:47:38.827Z,1.61
2023-04-25T11:48:38.803Z,2.19
2023-04-25T11:49:38.854Z,1.77
2023-04-25T11:50:38.906Z,1.73
2023-04-25T11:51:38.973Z,1.82
2023-04-25T11:52:39.062Z,1.84
2023-04-25T11:53:39.069Z,1.33
2023-04-25T11:54:39.126Z,1.68
2023-04-25T11:55:39.159Z,2.61
2023-04-25T11:56:39.219Z,1.65
2023-04-25T11:57:39.250Z,2.82
2023-04-25T11:58:39.272Z,1.80
2023-04-25T11:59:39.344Z,1.75
2023-04-25T12:00:39.323Z,1.56
2023-04-25T12:01:39.362Z,1.75
2023-04-25T12:02:39.901Z,1.99
2023-04-25T12:03:39.621Z,1.47
2023-04-25T12:04:39.671Z,1.91
2023-04-25T12:05:39.669Z,1.69
2023-04-25T12:06:39.570Z,1.78
2023-04-25T12:07:39.569Z,1.55
2023-04-25T12:08:39.552Z,1.72
2023-04-25T12:09:39.609Z,1.64
2023-04-25T12:10:39.686Z,1.94
2023-04-25T12:11:40.943Z,1.01
2023-04-25T12:12:39.690Z,1.71
2023-04-25T12:13:39.705Z,1.80
2023-04-25T12:14:39.756Z,1.91
2023-04-25T12:15:39.773Z,1.88
2023-04-25T12:16:39.814Z,1.77
2023-04-25T12:17:39.835Z,1.64
2023-04-25T12:18:40.939Z,1.72
2023-04-25T12:19:39.858Z,1.30
2023-04-25T12:20:39.932Z,1.78
2023-04-25T12:21:50.532Z,1.64
2023-04-25T12:22:40.936Z,1.78
2023-04-25T12:23:39.891Z,1.64
2023-04-25T12:24:39.919Z,1.74
2023-04-25T12:25:39.932Z,1.56
2023-04-25T12:26:39.911Z,2.04
2023-04-25T12:27:40.766Z,2.18
2023-04-25T12:28:39.892Z,2.10
2023-04-25T12:29:49.317Z,1.95
2023-04-25T12:30:42.321Z,2.14
2023-04-25T12:31:39.976Z,2.63
2023-04-25T12:32:40.030Z,2.32
2023-04-25T12:33:39.972Z,2.28
2023-04-25T12:34:39.954Z,2.66
2023-04-25T12:36:39.994Z,2.50
2023-04-25T12:37:39.963Z,2.02
2023-04-25T12:38:39.974Z,3.05
2023-04-25T12:39:39.984Z,2.97
2023-04-25T12:40:39.961Z,2.80
2023-04-25T12:41:39.966Z,3.30
2023-04-25T12:42:39.942Z,2.41
2023-04-25T12:43:39.959Z,2.28
2023-04-25T12:44:39.980Z,2.26
2023-04-25T12:45:39.953Z,2.21
2023-04-25T12:46:40.009Z,1.95
2023-04-25T12:47:40.022Z,2.45
2023-04-25T12:48:40.030Z,2.40
2023-04-25T12:49:39.933Z,2.81
2023-04-25T12:50:39.943Z,3.26
2023-04-25T12:51:39.937Z,2.54
2023-04-25T12:52:39.955Z,2.35
2023-04-25T12:53:39.961Z,2.26
2023-04-25T12:54:39.971Z,3.05
2023-04-25T12:55:39.942Z,2.91
2023-04-25T12:56:39.925Z,2.20
2023-04-25T12:57:39.958Z,2.61
2023-04-25T12:58:39.973Z,3.41
2023-04-25T12:59:39.954Z,2.47
2023-04-25T13:00:40.044Z,2.42
2023-04-25T13:01:40.126Z,2.26
2023-04-25T13:02:40.090Z,2.28
2023-04-25T13:03:40.185Z,2.49
2023-04-25T13:04:40.042Z,2.14
2023-04-25T13:05:39.940Z,2.13
2023-04-25T13:06:39.945Z,2.36
2023-04-25T13:07:39.944Z,1.82
2023-04-25T13:08:39.964Z,2.45
2023-04-25T13:09:39.947Z,2.18
2023-04-25T13:10:40.038Z,2.30
2023-04-25T13:11:39.966Z,1.99
2023-04-25T13:12:39.997Z,1.51
2023-04-25T13:13:39.987Z,2.38
2023-04-25T13:14:39.980Z,2.37
2023-04-25T13:15:39.999Z,2.58
2023-04-25T13:16:40.865Z,2.06
2023-04-25T13:17:40.045Z,1.61
2023-04-25T13:18:40.047Z,1.77
2023-04-25T13:19:40.053Z,1.90
2023-04-25T13:20:40.087Z,1.90
2023-04-25T13:21:40.058Z,1.53